Aérodrome :
LOGIN :

S'inscrire | Disclaimer

   EN    FR    IT 

 










Légende :    VFR   VFR Marginal   IFR   IFR Intensif   IFR Très Intensif
Visi : 
Plafond : 
>= 8 km
>= 3000ft
5 à 8 km
1000 à 3000 ft
1500m à 5 km
500 à 1000 ft
800 à 1500m
200 à 500 ft
< 800m
< 200 ft
Symboles :   Orages  Brouillard  Fortes neiges  Fortes précipitations  Vent > 20 kt
SIGMETs :   Divers  Orages  Givrage  Turbulence  Onde Orograph.  Cendres Volcan.







- Altitude de l'aérodrome : 3 ft
- Code IATA : LWR


EHLW - Leuuwarden Air Base

DERNIER METAR :
  • 171125Z AUTO 21005KT 9999 FEW350 04/03 Q1021 BLU

METARs EXPIRÉS :
  • 171055Z AUTO 24005KT 9999 BKN390 04/02 Q1021 BLU
  • 171025Z AUTO 21002KT 9999 NCD 04/02 Q1021 BLU
  • 170955Z AUTO 26003KT 9999 NCD 04/02 Q1021 BLU
  • 170925Z AUTO 26005KT 9999 NCD 03/02 Q1021 BLU
  • 170855Z AUTO 25006KT 9999 NCD 03/01 Q1021 BLU

TAF TAF EHLW
Valide du 17 à 10h jusqu'au 17 à 22h UTC


170920Z 1710/1722 26005KT 9999 SCT022
BECMG 1719/1722 20015G25KT SCT015 BKN020 OVC050
TEMPO 1720/1722 4500 RA FEW007 BKN010 OVC015
Pas de NOTAMs connus pour ce terrain.



MET'MAP, la Météo Aéronautique d'un coup d'oeil ! - Copyright ORBIFLY Décembre 2007 - Disclaimer

ORBIFLY MET'MAP TEAM :

Programmation & Développement : Alexandra Zaïnal
Conception & Développement : Baudouin d'Aumeries
Co-Programmation & Développement : Marc-Olivier Méhu
Soutien technique & logistique : Manuel Goepfert

Contact : metmap@orbifly.com




SOURCES & CREDITS :

   NOAA